sensor_id;sensor_type;location;lat;lon;timestamp;pressure;altitude;pressure_sealevel;temperature;humidity
70053;BME280;57398;52.032;4.376;2023-02-13T04:09:38;103881.22;;;6.01;nan
70053;BME280;57398;52.032;4.376;2023-02-13T04:12:34;103877.59;;;6.03;nan
70053;BME280;57398;52.032;4.376;2023-02-13T04:15:28;103876.53;;;6.06;nan
70053;BME280;57398;52.032;4.376;2023-02-13T04:18:20;103872.44;;;6.03;nan
70053;BME280;57398;52.032;4.376;2023-02-13T04:21:09;103880.50;;;5.99;nan
70053;BME280;57398;52.032;4.376;2023-02-13T04:23:57;103875.00;;;6.03;nan
70053;BME280;57398;52.032;4.376;2023-02-13T04:26:45;103887.44;;;5.98;nan
70053;BME280;57398;52.032;4.376;2023-02-13T04:29:33;103884.56;;;5.90;nan
70053;BME280;57398;52.032;4.376;2023-02-13T04:32:23;103884.66;;;5.88;nan
70053;BME280;57398;52.032;4.376;2023-02-13T04:35:11;103891.56;;;5.88;nan
70053;BME280;57398;52.032;4.376;2023-02-13T04:38:00;103897.69;;;5.87;nan
70053;BME280;57398;52.032;4.376;2023-02-13T04:40:48;103899.94;;;5.92;nan
70053;BME280;57398;52.032;4.376;2023-02-13T04:43:36;103890.13;;;5.97;nan
70053;BME280;57398;52.032;4.376;2023-02-13T04:46:25;103887.44;;;5.98;nan
70053;BME280;57398;52.032;4.376;2023-02-13T04:49:14;103886.00;;;5.94;nan
70053;BME280;57398;52.032;4.376;2023-02-13T04:52:03;103880.84;;;5.94;nan
70053;BME280;57398;52.032;4.376;2023-02-13T04:54:51;103877.44;;;5.94;nan
70053;BME280;57398;52.032;4.376;2023-02-13T04:57:39;103868.34;;;5.88;nan
70053;BME280;57398;52.032;4.376;2023-02-13T05:00:28;103871.56;;;5.92;nan
70053;BME280;57398;52.032;4.376;2023-02-13T05:03:16;103877.16;;;5.85;nan
70053;BME280;57398;52.032;4.376;2023-02-13T05:06:06;103871.66;;;5.90;nan
70053;BME280;57398;52.032;4.376;2023-02-13T05:08:54;103865.31;;;5.83;nan
70053;BME280;57398;52.032;4.376;2023-02-13T05:11:42;103868.50;;;5.86;nan
70053;BME280;57398;52.032;4.376;2023-02-13T05:14:31;103866.59;;;5.88;nan
70053;BME280;57398;52.032;4.376;2023-02-13T05:17:19;103861.66;;;5.85;nan
70053;BME280;57398;52.032;4.376;2023-02-13T05:20:07;103876.91;;;5.88;nan
70053;BME280;57398;52.032;4.376;2023-02-13T05:22:58;103874.00;;;5.82;nan
70053;BME280;57398;52.032;4.376;2023-02-13T05:26:03;103869.97;;;5.78;nan
70053;BME280;57398;52.032;4.376;2023-02-13T05:28:52;103869.97;;;5.78;nan
70053;BME280;57398;52.032;4.376;2023-02-13T05:31:57;103863.16;;;5.77;nan
70053;BME280;57398;52.032;4.376;2023-02-13T05:34:46;103868.56;;;5.74;nan
70053;BME280;57398;52.032;4.376;2023-02-13T05:37:34;103871.84;;;5.76;nan
70053;BME280;57398;52.032;4.376;2023-02-13T05:40:24;103865.72;;;5.77;nan
70053;BME280;57398;52.032;4.376;2023-02-13T05:43:13;103866.44;;;5.79;nan
70053;BME280;57398;52.032;4.376;2023-02-13T05:46:03;103874.09;;;5.80;nan
70053;BME280;57398;52.032;4.376;2023-02-13T05:48:51;103866.00;;;5.85;nan
70053;BME280;57398;52.032;4.376;2023-02-13T05:51:40;103871.06;;;5.86;nan
70053;BME280;57398;52.032;4.376;2023-02-13T05:54:28;103871.28;;;5.83;nan
70053;BME280;57398;52.032;4.376;2023-02-13T05:57:18;103861.66;;;5.85;nan
70053;BME280;57398;52.032;4.376;2023-02-13T06:00:07;103860.28;;;5.93;nan
70053;BME280;57398;52.032;4.376;2023-02-13T06:02:56;103862.28;;;5.89;nan
70053;BME280;57398;52.032;4.376;2023-02-13T06:05:44;103863.81;;;5.92;nan
70053;BME280;57398;52.032;4.376;2023-02-13T06:08:32;103864.72;;;5.91;nan
70053;BME280;57398;52.032;4.376;2023-02-13T06:11:20;103860.41;;;5.91;nan
70053;BME280;57398;52.032;4.376;2023-02-13T06:14:10;103857.22;;;5.87;nan
70053;BME280;57398;52.032;4.376;2023-02-13T06:17:00;103856.50;;;5.85;nan
70053;BME280;57398;52.032;4.376;2023-02-13T06:19:48;103850.31;;;5.88;nan
70053;BME280;57398;52.032;4.376;2023-02-13T06:22:36;103861.56;;;5.87;nan
70053;BME280;57398;52.032;4.376;2023-02-13T06:25:24;103860.25;;;5.81;nan
70053;BME280;57398;52.032;4.376;2023-02-13T06:28:12;103858.63;;;5.80;nan
70053;BME280;57398;52.032;4.376;2023-02-13T06:31:02;103854.03;;;5.73;nan
70053;BME280;57398;52.032;4.376;2023-02-13T06:33:51;103856.81;;;5.70;nan
70053;BME280;57398;52.032;4.376;2023-02-13T06:36:40;103859.50;;;5.68;nan
70053;BME280;57398;52.032;4.376;2023-02-13T06:39:28;103861.75;;;5.73;nan
70053;BME280;57398;52.032;4.376;2023-02-13T06:42:16;103853.31;;;5.71;nan
70053;BME280;57398;52.032;4.376;2023-02-13T06:45:06;103856.59;;;5.73;nan
70053;BME280;57398;52.032;4.376;2023-02-13T06:47:55;103872.66;;;5.76;nan
70053;BME280;57398;52.032;4.376;2023-02-13T06:50:43;103871.59;;;5.79;nan
70053;BME280;57398;52.032;4.376;2023-02-13T06:53:31;103873.47;;;5.77;nan
70053;BME280;57398;52.032;4.376;2023-02-13T06:56:19;103878.75;;;5.75;nan
70053;BME280;57398;52.032;4.376;2023-02-13T06:59:07;103884.41;;;5.80;nan
70053;BME280;57398;52.032;4.376;2023-02-13T07:01:56;103887.81;;;5.81;nan
70053;BME280;57398;52.032;4.376;2023-02-13T07:04:45;103888.75;;;5.80;nan
70053;BME280;57398;52.032;4.376;2023-02-13T07:07:34;103894.50;;;5.83;nan
70053;BME280;57398;52.032;4.376;2023-02-13T07:10:23;103894.81;;;5.79;nan
70053;BME280;57398;52.032;4.376;2023-02-13T07:13:11;103890.47;;;5.79;nan
70053;BME280;57398;52.032;4.376;2023-02-13T07:16:00;103902.38;;;5.82;nan
70053;BME280;57398;52.032;4.376;2023-02-13T07:18:48;103895.53;;;5.81;nan
70053;BME280;57398;52.032;4.376;2023-02-13T07:21:38;103905.53;;;5.85;nan
70053;BME280;57398;52.032;4.376;2023-02-13T07:24:26;103901.78;;;5.90;nan
70053;BME280;57398;52.032;4.376;2023-02-13T07:27:14;103898.16;;;5.92;nan
70053;BME280;57398;52.032;4.376;2023-02-13T07:30:02;103900.03;;;5.90;nan
70053;BME280;57398;52.032;4.376;2023-02-13T07:32:50;103898.97;;;5.93;nan
70053;BME280;57398;52.032;4.376;2023-02-13T07:35:38;103904.78;;;5.96;nan
70053;BME280;57398;52.032;4.376;2023-02-13T07:38:30;103898.69;;;5.97;nan
70053;BME280;57398;52.032;4.376;2023-02-13T07:41:19;103898.25;;;6.03;nan
70053;BME280;57398;52.032;4.376;2023-02-13T07:44:07;103896.03;;;6.10;nan
70053;BME280;57398;52.032;4.376;2023-02-13T07:46:55;103899.81;;;6.17;nan
70053;BME280;57398;52.032;4.376;2023-02-13T07:49:43;103896.06;;;6.21;nan
70053;BME280;57398;52.032;4.376;2023-02-13T07:52:31;103893.00;;;6.27;nan
70053;BME280;57398;52.032;4.376;2023-02-13T07:55:21;103904.31;;;6.38;nan
70053;BME280;57398;52.032;4.376;2023-02-13T07:58:09;103895.84;;;6.36;nan
70053;BME280;57398;52.032;4.376;2023-02-13T08:00:57;103899.72;;;6.41;nan
70053;BME280;57398;52.032;4.376;2023-02-13T08:03:47;103898.69;;;6.44;nan
70053;BME280;57398;52.032;4.376;2023-02-13T08:06:38;103904.09;;;6.52;nan
70053;BME280;57398;52.032;4.376;2023-02-13T08:09:26;103912.66;;;6.64;nan
70053;BME280;57398;52.032;4.376;2023-02-13T08:12:34;103907.16;;;6.68;nan
70053;BME280;57398;52.032;4.376;2023-02-13T08:15:23;103906.69;;;6.75;nan
70053;BME280;57398;52.032;4.376;2023-02-13T08:18:11;103908.94;;;6.79;nan
70053;BME280;57398;52.032;4.376;2023-02-13T08:21:00;103903.41;;;6.84;nan
70053;BME280;57398;52.032;4.376;2023-02-13T08:23:48;103907.53;;;6.86;nan
70053;BME280;57398;52.032;4.376;2023-02-13T08:26:38;103902.81;;;6.91;nan
70053;BME280;57398;52.032;4.376;2023-02-13T08:29:28;103905.88;;;6.97;nan
70053;BME280;57398;52.032;4.376;2023-02-13T08:32:16;103908.56;;;6.95;nan
70053;BME280;57398;52.032;4.376;2023-02-13T08:35:05;103912.22;;;6.92;nan
70053;BME280;57398;52.032;4.376;2023-02-13T08:37:53;103904.47;;;7.04;nan
70053;BME280;57398;52.032;4.376;2023-02-13T08:40:41;103906.44;;;7.11;nan
70053;BME280;57398;52.032;4.376;2023-02-13T08:43:29;103911.59;;;7.23;nan
70053;BME280;57398;52.032;4.376;2023-02-13T08:46:18;103915.59;;;7.27;nan
70053;BME280;57398;52.032;4.376;2023-02-13T08:49:07;103917.72;;;7.33;nan
70053;BME280;57398;52.032;4.376;2023-02-13T08:51:55;103915.69;;;7.37;nan
70053;BME280;57398;52.032;4.376;2023-02-13T08:54:43;103912.41;;;7.34;nan
70053;BME280;57398;52.032;4.376;2023-02-13T08:57:31;103917.22;;;7.39;nan
70053;BME280;57398;52.032;4.376;2023-02-13T09:00:20;103917.63;;;7.55;nan
70053;BME280;57398;52.032;4.376;2023-02-13T09:03:09;103916.81;;;7.55;nan
70053;BME280;57398;52.032;4.376;2023-02-13T09:05:58;103925.03;;;7.60;nan
70053;BME280;57398;52.032;4.376;2023-02-13T09:08:47;103914.66;;;7.71;nan
70053;BME280;57398;52.032;4.376;2023-02-13T09:11:35;103909.94;;;7.76;nan
70053;BME280;57398;52.032;4.376;2023-02-13T09:14:24;103914.22;;;7.87;nan
70053;BME280;57398;52.032;4.376;2023-02-13T09:17:12;103910.00;;;7.86;nan
70053;BME280;57398;52.032;4.376;2023-02-13T09:20:01;103908.94;;;7.89;nan
70053;BME280;57398;52.032;4.376;2023-02-13T09:22:49;103909.00;;;7.98;nan
70053;BME280;57398;52.032;4.376;2023-02-13T09:25:37;103910.72;;;8.09;nan
70053;BME280;57398;52.032;4.376;2023-02-13T09:28:26;103915.16;;;8.18;nan
70053;BME280;57398;52.032;4.376;2023-02-13T09:31:16;103908.25;;;8.29;nan
70053;BME280;57398;52.032;4.376;2023-02-13T09:34:04;103907.25;;;8.20;nan
70053;BME280;57398;52.032;4.376;2023-02-13T09:36:54;103917.16;;;8.36;nan
70053;BME280;57398;52.032;4.376;2023-02-13T09:39:42;103907.59;;;8.48;nan
70053;BME280;57398;52.032;4.376;2023-02-13T09:42:32;103906.22;;;8.84;nan
70053;BME280;57398;52.032;4.376;2023-02-13T09:45:22;103903.91;;;8.81;nan
70053;BME280;57398;52.032;4.376;2023-02-13T09:48:17;103900.03;;;9.16;nan
70053;BME280;57398;52.032;4.376;2023-02-13T09:51:06;103894.53;;;8.99;nan
70053;BME280;57398;52.032;4.376;2023-02-13T09:53:58;103899.00;;;8.88;nan
70053;BME280;57398;52.032;4.376;2023-02-13T09:56:49;103888.91;;;8.85;nan
70053;BME280;57398;52.032;4.376;2023-02-13T09:59:52;103902.81;;;8.84;nan
70053;BME280;57398;52.032;4.376;2023-02-13T10:05:59;103894.63;;;8.48;nan
70053;BME280;57398;52.032;4.376;2023-02-13T10:09:05;103889.81;;;8.22;nan
70053;BME280;57398;52.032;4.376;2023-02-13T10:12:12;103904.16;;;8.05;nan
70053;BME280;57398;52.032;4.376;2023-02-13T10:15:14;103910.13;;;7.85;nan
70053;BME280;57398;52.032;4.376;2023-02-13T10:18:08;103914.06;;;8.00;nan
70053;BME280;57398;52.032;4.376;2023-02-13T10:21:00;103912.41;;;7.99;nan
70053;BME280;57398;52.032;4.376;2023-02-13T10:23:54;103910.56;;;7.90;nan
70053;BME280;57398;52.032;4.376;2023-02-13T10:26:45;103911.97;;;7.94;nan
70053;BME280;57398;52.032;4.376;2023-02-13T10:29:38;103910.03;;;8.07;nan
70053;BME280;57398;52.032;4.376;2023-02-13T10:32:53;103894.97;;;8.22;nan
70053;BME280;57398;52.032;4.376;2023-02-13T10:36:00;103892.72;;;8.29;nan
70053;BME280;57398;52.032;4.376;2023-02-13T10:38:55;103890.00;;;8.51;nan
70053;BME280;57398;52.032;4.376;2023-02-13T10:41:50;103889.94;;;8.72;nan
70053;BME280;57398;52.032;4.376;2023-02-13T10:44:47;103884.47;;;9.06;nan
70053;BME280;57398;52.032;4.376;2023-02-13T10:47:57;103881.66;;;9.29;nan
70053;BME280;57398;52.032;4.376;2023-02-13T10:51:00;103876.41;;;9.09;nan
70053;BME280;57398;52.032;4.376;2023-02-13T10:54:01;103869.22;;;9.22;nan
70053;BME280;57398;52.032;4.376;2023-02-13T10:57:06;103870.28;;;9.10;nan
70053;BME280;57398;52.032;4.376;2023-02-13T11:00:04;103865.91;;;9.20;nan
70053;BME280;57398;52.032;4.376;2023-02-13T11:02:54;103868.78;;;8.98;nan
70053;BME280;57398;52.032;4.376;2023-02-13T11:05:43;103867.81;;;8.99;nan
70053;BME280;57398;52.032;4.376;2023-02-13T11:08:33;103868.19;;;8.94;nan
70053;BME280;57398;52.032;4.376;2023-02-13T11:11:29;103871.22;;;9.09;nan
70053;BME280;57398;52.032;4.376;2023-02-13T11:14:20;103874.19;;;8.95;nan
70053;BME280;57398;52.032;4.376;2023-02-13T11:17:16;103865.97;;;8.80;nan
70053;BME280;57398;52.032;4.376;2023-02-13T11:20:24;103861.50;;;8.92;nan
70053;BME280;57398;52.032;4.376;2023-02-13T11:23:33;103856.34;;;9.01;nan
70053;BME280;57398;52.032;4.376;2023-02-13T11:26:25;103847.47;;;9.04;nan
70053;BME280;57398;52.032;4.376;2023-02-13T11:29:19;103840.50;;;9.05;nan
70053;BME280;57398;52.032;4.376;2023-02-13T11:32:18;103845.03;;;9.22;nan
70053;BME280;57398;52.032;4.376;2023-02-13T11:35:27;103844.50;;;9.18;nan
70053;BME280;57398;52.032;4.376;2023-02-13T11:38:24;103841.25;;;9.26;nan
70053;BME280;57398;52.032;4.376;2023-02-13T11:41:21;103829.78;;;9.29;nan
70053;BME280;57398;52.032;4.376;2023-02-13T11:44:21;103826.88;;;9.32;nan
70053;BME280;57398;52.032;4.376;2023-02-13T11:47:12;103822.66;;;9.21;nan
70053;BME280;57398;52.032;4.376;2023-02-13T11:50:04;103827.28;;;9.17;nan
70053;BME280;57398;52.032;4.376;2023-02-13T11:52:55;103824.41;;;9.11;nan
70053;BME280;57398;52.032;4.376;2023-02-13T11:55:45;103825.78;;;9.05;nan
70053;BME280;57398;52.032;4.376;2023-02-13T11:58:59;103825.28;;;9.21;nan
70053;BME280;57398;52.032;4.376;2023-02-13T12:02:01;103821.03;;;9.20;nan
70053;BME280;57398;52.032;4.376;2023-02-13T12:04:51;103820.06;;;9.40;nan
70053;BME280;57398;52.032;4.376;2023-02-13T12:07:40;103820.22;;;9.49;nan
70053;BME280;57398;52.032;4.376;2023-02-13T12:10:30;103816.94;;;9.47;nan
70053;BME280;57398;52.032;4.376;2023-02-13T12:13:24;103810.09;;;9.55;nan
70053;BME280;57398;52.032;4.376;2023-02-13T12:16:26;103813.09;;;9.70;nan
70053;BME280;57398;52.032;4.376;2023-02-13T12:19:20;103816.38;;;9.53;nan
70053;BME280;57398;52.032;4.376;2023-02-13T12:22:27;103805.72;;;9.65;nan
70053;BME280;57398;52.032;4.376;2023-02-13T12:25:25;103802.56;;;9.62;nan
70053;BME280;57398;52.032;4.376;2023-02-13T12:28:21;103799.97;;;9.52;nan
70053;BME280;57398;52.032;4.376;2023-02-13T12:31:29;103796.03;;;9.58;nan
70053;BME280;57398;52.032;4.376;2023-02-13T12:34:43;103793.44;;;9.58;nan
70053;BME280;57398;52.032;4.376;2023-02-13T12:37:59;103786.97;;;9.81;nan
70053;BME280;57398;52.032;4.376;2023-02-13T12:41:05;103783.97;;;9.76;nan
70053;BME280;57398;52.032;4.376;2023-02-13T12:47:29;103783.69;;;9.79;nan
70053;BME280;57398;52.032;4.376;2023-02-13T12:50:30;103781.78;;;9.81;nan
70053;BME280;57398;52.032;4.376;2023-02-13T12:53:37;103766.44;;;9.88;nan
70053;BME280;57398;52.032;4.376;2023-02-13T12:56:47;103769.47;;;9.83;nan
70053;BME280;57398;52.032;4.376;2023-02-13T12:59:50;103774.50;;;9.95;nan
70053;BME280;57398;52.032;4.376;2023-02-13T13:03:06;103764.78;;;9.97;nan
70053;BME280;57398;52.032;4.376;2023-02-13T13:06:17;103766.72;;;9.95;nan
70053;BME280;57398;52.032;4.376;2023-02-13T13:09:24;103760.84;;;9.93;nan
70053;BME280;57398;52.032;4.376;2023-02-13T13:12:33;103754.28;;;9.89;nan
70053;BME280;57398;52.032;4.376;2023-02-13T13:15:31;103756.31;;;9.95;nan
70053;BME280;57398;52.032;4.376;2023-02-13T13:18:35;103756.03;;;9.98;nan
70053;BME280;57398;52.032;4.376;2023-02-13T13:21:35;103753.13;;;10.01;nan
70053;BME280;57398;52.032;4.376;2023-02-13T13:24:40;103762.28;;;10.05;nan
70053;BME280;57398;52.032;4.376;2023-02-13T13:27:31;103744.91;;;10.05;nan
70053;BME280;57398;52.032;4.376;2023-02-13T13:30:22;103749.28;;;10.15;nan
70053;BME280;57398;52.032;4.376;2023-02-13T13:33:15;103746.19;;;10.01;nan
70053;BME280;57398;52.032;4.376;2023-02-13T13:36:08;103746.31;;;10.00;nan
70053;BME280;57398;52.032;4.376;2023-02-13T13:39:04;103745.78;;;9.96;nan
70053;BME280;57398;52.032;4.376;2023-02-13T13:41:58;103745.59;;;10.07;nan
70053;BME280;57398;52.032;4.376;2023-02-13T13:45:22;103742.00;;;10.18;nan
70053;BME280;57398;52.032;4.376;2023-02-13T13:51:25;103737.38;;;10.12;nan
70053;BME280;57398;52.032;4.376;2023-02-13T13:54:33;103720.91;;;10.03;nan
70053;BME280;57398;52.032;4.376;2023-02-13T13:57:22;103722.63;;;10.13;nan
70053;BME280;57398;52.032;4.376;2023-02-13T14:00:26;103716.31;;;10.15;nan
70053;BME280;57398;52.032;4.376;2023-02-13T14:03:24;103716.03;;;10.18;nan
70053;BME280;57398;52.032;4.376;2023-02-13T14:06:23;103721.34;;;10.17;nan
70053;BME280;57398;52.032;4.376;2023-02-13T14:12:45;103716.22;;;10.07;nan
70053;BME280;57398;52.032;4.376;2023-02-13T14:15:51;103715.41;;;10.06;nan
70053;BME280;57398;52.032;4.376;2023-02-13T14:18:44;103713.63;;;10.07;nan
70053;BME280;57398;52.032;4.376;2023-02-13T14:21:34;103703.53;;;10.04;nan
70053;BME280;57398;52.032;4.376;2023-02-13T14:24:23;103708.28;;;10.09;nan
70053;BME280;57398;52.032;4.376;2023-02-13T14:27:20;103710.75;;;10.10;nan
70053;BME280;57398;52.032;4.376;2023-02-13T14:30:26;103699.63;;;10.18;nan
70053;BME280;57398;52.032;4.376;2023-02-13T14:33:25;103694.44;;;10.18;nan
70053;BME280;57398;52.032;4.376;2023-02-13T14:36:20;103699.19;;;10.22;nan
70053;BME280;57398;52.032;4.376;2023-02-13T14:39:19;103696.28;;;10.25;nan
70053;BME280;57398;52.032;4.376;2023-02-13T14:42:22;103703.94;;;10.27;nan
70053;BME280;57398;52.032;4.376;2023-02-13T14:45:14;103700.97;;;10.22;nan
70053;BME280;57398;52.032;4.376;2023-02-13T14:48:07;103694.94;;;10.21;nan
70053;BME280;57398;52.032;4.376;2023-02-13T14:51:00;103695.63;;;10.23;nan
70053;BME280;57398;52.032;4.376;2023-02-13T14:53:51;103691.25;;;10.24;nan
70053;BME280;57398;52.032;4.376;2023-02-13T14:56:44;103694.09;;;10.31;nan
70053;BME280;57398;52.032;4.376;2023-02-13T14:59:35;103687.28;;;10.30;nan
70053;BME280;57398;52.032;4.376;2023-02-13T15:02:26;103681.69;;;10.24;nan
70053;BME280;57398;52.032;4.376;2023-02-13T15:05:17;103688.81;;;10.22;nan
70053;BME280;57398;52.032;4.376;2023-02-13T15:08:13;103683.75;;;10.21;nan
70053;BME280;57398;52.032;4.376;2023-02-13T15:11:02;103681.16;;;10.21;nan
70053;BME280;57398;52.032;4.376;2023-02-13T15:13:50;103686.06;;;10.24;nan
70053;BME280;57398;52.032;4.376;2023-02-13T15:16:38;103678.97;;;10.16;nan
70053;BME280;57398;52.032;4.376;2023-02-13T15:19:26;103671.63;;;10.12;nan
70053;BME280;57398;52.032;4.376;2023-02-13T15:22:19;103675.56;;;10.16;nan
70053;BME280;57398;52.032;4.376;2023-02-13T15:25:08;103672.44;;;10.12;nan
70053;BME280;57398;52.032;4.376;2023-02-13T15:28:17;103674.09;;;10.13;nan
70053;BME280;57398;52.032;4.376;2023-02-13T15:31:20;103673.97;;;10.05;nan
70053;BME280;57398;52.032;4.376;2023-02-13T15:34:19;103678.13;;;9.98;nan
70053;BME280;57398;52.032;4.376;2023-02-13T15:37:21;103680.59;;;9.99;nan
70053;BME280;57398;52.032;4.376;2023-02-13T15:40:13;103686.47;;;10.01;nan
70053;BME280;57398;52.032;4.376;2023-02-13T15:43:01;103687.56;;;9.99;nan
70053;BME280;57398;52.032;4.376;2023-02-13T15:45:50;103685.00;;;9.89;nan
70053;BME280;57398;52.032;4.376;2023-02-13T15:48:38;103688.69;;;9.86;nan
70053;BME280;57398;52.032;4.376;2023-02-13T15:51:28;103680.91;;;9.86;nan
70053;BME280;57398;52.032;4.376;2023-02-13T15:54:26;103687.25;;;9.74;nan
70053;BME280;57398;52.032;4.376;2023-02-13T15:57:15;103682.19;;;9.73;nan
70053;BME280;57398;52.032;4.376;2023-02-13T16:00:08;103684.28;;;9.69;nan
70053;BME280;57398;52.032;4.376;2023-02-13T16:03:01;103687.44;;;9.63;nan
70053;BME280;57398;52.032;4.376;2023-02-13T16:05:51;103685.41;;;9.47;nan
70053;BME280;57398;52.032;4.376;2023-02-13T16:08:43;103689.81;;;9.37;nan
70053;BME280;57398;52.032;4.376;2023-02-13T16:11:34;103687.81;;;9.21;nan
70053;BME280;57398;52.032;4.376;2023-02-13T16:14:26;103686.31;;;8.99;nan
70053;BME280;57398;52.032;4.376;2023-02-13T16:17:17;103688.91;;;8.89;nan
70053;BME280;57398;52.032;4.376;2023-02-13T16:20:18;103678.78;;;8.86;nan
70053;BME280;57398;52.032;4.376;2023-02-13T16:23:15;103667.63;;;8.76;nan
70053;BME280;57398;52.032;4.376;2023-02-13T16:26:11;103670.22;;;8.86;nan
70053;BME280;57398;52.032;4.376;2023-02-13T16:29:07;103675.13;;;8.79;nan
70053;BME280;57398;52.032;4.376;2023-02-13T16:32:04;103675.53;;;8.65;nan
70053;BME280;57398;52.032;4.376;2023-02-13T16:35:14;103676.88;;;8.49;nan
70053;BME280;57398;52.032;4.376;2023-02-13T16:38:03;103666.06;;;8.34;nan
70053;BME280;57398;52.032;4.376;2023-02-13T16:40:52;103664.13;;;8.27;nan
70053;BME280;57398;52.032;4.376;2023-02-13T16:43:44;103673.22;;;8.11;nan
70053;BME280;57398;52.032;4.376;2023-02-13T16:46:38;103674.66;;;7.94;nan
70053;BME280;57398;52.032;4.376;2023-02-13T16:49:28;103677.78;;;7.88;nan
70053;BME280;57398;52.032;4.376;2023-02-13T16:52:20;103680.03;;;7.72;nan
70053;BME280;57398;52.032;4.376;2023-02-13T16:55:13;103682.53;;;7.62;nan
70053;BME280;57398;52.032;4.376;2023-02-13T16:58:03;103687.41;;;7.55;nan
70053;BME280;57398;52.032;4.376;2023-02-13T17:00:52;103694.84;;;7.49;nan
70053;BME280;57398;52.032;4.376;2023-02-13T17:03:42;103695.50;;;7.41;nan
70053;BME280;57398;52.032;4.376;2023-02-13T17:06:30;103698.59;;;7.35;nan
70053;BME280;57398;52.032;4.376;2023-02-13T17:09:18;103702.66;;;7.17;nan
70053;BME280;57398;52.032;4.376;2023-02-13T17:12:13;103700.72;;;7.09;nan
70053;BME280;57398;52.032;4.376;2023-02-13T17:15:03;103701.53;;;7.09;nan
70053;BME280;57398;52.032;4.376;2023-02-13T17:17:52;103701.38;;;6.90;nan
70053;BME280;57398;52.032;4.376;2023-02-13T17:20:43;103707.06;;;6.72;nan
70053;BME280;57398;52.032;4.376;2023-02-13T17:23:31;103712.41;;;6.60;nan
70053;BME280;57398;52.032;4.376;2023-02-13T17:26:20;103713.94;;;6.51;nan
70053;BME280;57398;52.032;4.376;2023-02-13T17:29:08;103715.72;;;6.39;nan
70053;BME280;57398;52.032;4.376;2023-02-13T17:31:56;103706.78;;;6.32;nan
70053;BME280;57398;52.032;4.376;2023-02-13T17:34:44;103698.84;;;6.24;nan
70053;BME280;57398;52.032;4.376;2023-02-13T17:37:34;103698.59;;;6.16;nan
70053;BME280;57398;52.032;4.376;2023-02-13T17:40:24;103697.88;;;6.02;nan
70053;BME280;57398;52.032;4.376;2023-02-13T17:43:17;103696.13;;;5.92;nan
70053;BME280;57398;52.032;4.376;2023-02-13T17:46:06;103695.38;;;5.78;nan
70053;BME280;57398;52.032;4.376;2023-02-13T17:48:54;103690.31;;;5.65;nan
70053;BME280;57398;52.032;4.376;2023-02-13T17:51:42;103693.59;;;5.56;nan
70053;BME280;57398;52.032;4.376;2023-02-13T17:54:33;103694.41;;;5.45;nan
70053;BME280;57398;52.032;4.376;2023-02-13T17:57:21;103688.97;;;5.37;nan
70053;BME280;57398;52.032;4.376;2023-02-13T18:00:10;103701.50;;;5.31;nan
70053;BME280;57398;52.032;4.376;2023-02-13T18:02:59;103693.63;;;5.21;nan
70053;BME280;57398;52.032;4.376;2023-02-13T18:05:48;103697.84;;;5.22;nan
70053;BME280;57398;52.032;4.376;2023-02-13T18:08:36;103692.47;;;5.25;nan
70053;BME280;57398;52.032;4.376;2023-02-13T18:11:26;103689.97;;;5.12;nan
70053;BME280;57398;52.032;4.376;2023-02-13T18:14:14;103692.38;;;5.02;nan
70053;BME280;57398;52.032;4.376;2023-02-13T18:17:02;103683.78;;;4.91;nan
70053;BME280;57398;52.032;4.376;2023-02-13T18:19:50;103685.28;;;4.82;nan
70053;BME280;57398;52.032;4.376;2023-02-13T18:22:39;103689.00;;;4.78;nan
70053;BME280;57398;52.032;4.376;2023-02-13T18:25:27;103690.34;;;4.71;nan
70053;BME280;57398;52.032;4.376;2023-02-13T18:28:17;103693.88;;;4.70;nan
70053;BME280;57398;52.032;4.376;2023-02-13T18:31:08;103692.44;;;4.66;nan
70053;BME280;57398;52.032;4.376;2023-02-13T18:33:56;103696.16;;;4.61;nan
70053;BME280;57398;52.032;4.376;2023-02-13T18:36:44;103688.75;;;4.57;nan
70053;BME280;57398;52.032;4.376;2023-02-13T18:39:33;103693.50;;;4.50;nan
70053;BME280;57398;52.032;4.376;2023-02-13T18:42:21;103690.66;;;4.42;nan
70053;BME280;57398;52.032;4.376;2023-02-13T18:45:11;103680.16;;;4.32;nan
70053;BME280;57398;52.032;4.376;2023-02-13T18:48:00;103685.94;;;4.23;nan
70053;BME280;57398;52.032;4.376;2023-02-13T18:50:48;103683.19;;;4.13;nan
70053;BME280;57398;52.032;4.376;2023-02-13T18:53:36;103688.03;;;4.05;nan
70053;BME280;57398;52.032;4.376;2023-02-13T18:56:25;103685.06;;;3.98;nan
70053;BME280;57398;52.032;4.376;2023-02-13T18:59:13;103682.91;;;3.92;nan
70053;BME280;57398;52.032;4.376;2023-02-13T19:02:02;103679.53;;;3.92;nan
70053;BME280;57398;52.032;4.376;2023-02-13T19:04:50;103684.56;;;3.93;nan
70053;BME280;57398;52.032;4.376;2023-02-13T19:07:39;103678.06;;;4.01;nan
70053;BME280;57398;52.032;4.376;2023-02-13T19:10:27;103684.06;;;4.01;nan
70053;BME280;57398;52.032;4.376;2023-02-13T19:13:15;103677.78;;;3.92;nan
70053;BME280;57398;52.032;4.376;2023-02-13T19:16:05;103677.38;;;3.86;nan
70053;BME280;57398;52.032;4.376;2023-02-13T19:18:58;103679.00;;;3.74;nan
70053;BME280;57398;52.032;4.376;2023-02-13T19:21:47;103671.91;;;3.65;nan
70053;BME280;57398;52.032;4.376;2023-02-13T19:24:35;103672.31;;;3.59;nan
70053;BME280;57398;52.032;4.376;2023-02-13T19:27:23;103678.06;;;3.49;nan
70053;BME280;57398;52.032;4.376;2023-02-13T19:30:12;103685.25;;;3.44;nan
70053;BME280;57398;52.032;4.376;2023-02-13T19:33:00;103684.31;;;3.32;nan
70053;BME280;57398;52.032;4.376;2023-02-13T19:35:57;103689.47;;;3.32;nan
70053;BME280;57398;52.032;4.376;2023-02-13T19:38:46;103681.34;;;3.39;nan
70053;BME280;57398;52.032;4.376;2023-02-13T19:41:34;103679.31;;;3.44;nan
70053;BME280;57398;52.032;4.376;2023-02-13T19:44:22;103680.22;;;3.30;nan
70053;BME280;57398;52.032;4.376;2023-02-13T19:47:10;103679.16;;;3.20;nan
70053;BME280;57398;52.032;4.376;2023-02-13T19:49:58;103686.63;;;3.10;nan
70053;BME280;57398;52.032;4.376;2023-02-13T19:52:49;103679.81;;;3.09;nan
70053;BME280;57398;52.032;4.376;2023-02-13T19:55:37;103672.41;;;3.04;nan
70053;BME280;57398;52.032;4.376;2023-02-13T19:58:25;103665.22;;;2.97;nan